sensor_id;sensor_type;location;lat;lon;timestamp;temperature;humidity
13591;DHT22;6866;50.778;7.206;2023-12-07T00:00:25;4.20;99.90
13591;DHT22;6866;50.778;7.206;2023-12-07T00:02:50;4.10;99.90
13591;DHT22;6866;50.778;7.206;2023-12-07T00:05:16;4.00;99.90
13591;DHT22;6866;50.778;7.206;2023-12-07T00:07:42;4.10;99.90
13591;DHT22;6866;50.778;7.206;2023-12-07T00:10:07;4.00;99.90
13591;DHT22;6866;50.778;7.206;2023-12-07T00:12:33;4.00;99.90
13591;DHT22;6866;50.778;7.206;2023-12-07T00:14:59;4.00;99.90
13591;DHT22;6866;50.778;7.206;2023-12-07T00:17:24;4.00;99.90
13591;DHT22;6866;50.778;7.206;2023-12-07T00:19:51;4.00;99.90
13591;DHT22;6866;50.778;7.206;2023-12-07T00:22:19;4.00;99.90
13591;DHT22;6866;50.778;7.206;2023-12-07T00:24:45;4.00;99.90
13591;DHT22;6866;50.778;7.206;2023-12-07T00:27:10;4.10;99.90
13591;DHT22;6866;50.778;7.206;2023-12-07T00:29:37;4.10;99.90
13591;DHT22;6866;50.778;7.206;2023-12-07T00:32:03;4.10;99.90
13591;DHT22;6866;50.778;7.206;2023-12-07T00:34:29;4.10;99.90
13591;DHT22;6866;50.778;7.206;2023-12-07T00:36:55;4.20;99.90
13591;DHT22;6866;50.778;7.206;2023-12-07T00:39:20;4.20;99.90
13591;DHT22;6866;50.778;7.206;2023-12-07T00:41:46;4.20;99.90
13591;DHT22;6866;50.778;7.206;2023-12-07T00:44:13;4.10;99.90
13591;DHT22;6866;50.778;7.206;2023-12-07T00:46:39;4.00;99.90
13591;DHT22;6866;50.778;7.206;2023-12-07T00:49:05;4.10;99.90
13591;DHT22;6866;50.778;7.206;2023-12-07T00:51:30;4.10;99.90
13591;DHT22;6866;50.778;7.206;2023-12-07T00:53:56;4.10;99.90
13591;DHT22;6866;50.778;7.206;2023-12-07T00:56:21;4.20;99.90
13591;DHT22;6866;50.778;7.206;2023-12-07T00:58:47;4.20;99.90
13591;DHT22;6866;50.778;7.206;2023-12-07T01:01:12;4.10;99.90
13591;DHT22;6866;50.778;7.206;2023-12-07T01:03:38;4.30;99.90
13591;DHT22;6866;50.778;7.206;2023-12-07T01:06:06;4.30;99.90
13591;DHT22;6866;50.778;7.206;2023-12-07T01:08:31;4.30;99.90
13591;DHT22;6866;50.778;7.206;2023-12-07T01:10:57;4.40;99.90
13591;DHT22;6866;50.778;7.206;2023-12-07T01:13:23;4.50;99.90
13591;DHT22;6866;50.778;7.206;2023-12-07T01:15:49;4.30;99.90
13591;DHT22;6866;50.778;7.206;2023-12-07T01:18:15;4.20;99.90
13591;DHT22;6866;50.778;7.206;2023-12-07T01:20:40;4.20;99.90
13591;DHT22;6866;50.778;7.206;2023-12-07T01:23:06;4.30;99.90
13591;DHT22;6866;50.778;7.206;2023-12-07T01:25:34;4.40;99.90
13591;DHT22;6866;50.778;7.206;2023-12-07T01:27:59;4.40;99.90
13591;DHT22;6866;50.778;7.206;2023-12-07T01:30:25;4.30;99.90
13591;DHT22;6866;50.778;7.206;2023-12-07T01:32:50;4.30;99.90
13591;DHT22;6866;50.778;7.206;2023-12-07T01:35:16;4.30;99.90
13591;DHT22;6866;50.778;7.206;2023-12-07T01:37:41;4.30;99.90
13591;DHT22;6866;50.778;7.206;2023-12-07T01:40:07;4.30;99.90
13591;DHT22;6866;50.778;7.206;2023-12-07T01:42:38;4.40;99.90
13591;DHT22;6866;50.778;7.206;2023-12-07T01:45:05;4.30;99.90
13591;DHT22;6866;50.778;7.206;2023-12-07T01:47:31;4.30;99.90
13591;DHT22;6866;50.778;7.206;2023-12-07T01:49:58;4.30;99.90
13591;DHT22;6866;50.778;7.206;2023-12-07T01:52:27;4.20;99.90
13591;DHT22;6866;50.778;7.206;2023-12-07T01:54:54;4.30;99.90
13591;DHT22;6866;50.778;7.206;2023-12-07T01:57:20;4.30;99.90
13591;DHT22;6866;50.778;7.206;2023-12-07T01:59:46;4.20;99.90
13591;DHT22;6866;50.778;7.206;2023-12-07T02:04:47;4.10;99.90
13591;DHT22;6866;50.778;7.206;2023-12-07T02:07:12;4.20;99.90
13591;DHT22;6866;50.778;7.206;2023-12-07T02:09:38;4.30;99.90
13591;DHT22;6866;50.778;7.206;2023-12-07T02:12:04;4.20;99.90
13591;DHT22;6866;50.778;7.206;2023-12-07T02:14:29;4.20;99.90
13591;DHT22;6866;50.778;7.206;2023-12-07T02:17:24;4.40;99.90
13591;DHT22;6866;50.778;7.206;2023-12-07T02:22:32;4.40;99.90
13591;DHT22;6866;50.778;7.206;2023-12-07T02:25:08;4.50;99.90
13591;DHT22;6866;50.778;7.206;2023-12-07T02:27:44;4.40;99.90
13591;DHT22;6866;50.778;7.206;2023-12-07T02:30:13;4.50;99.90
13591;DHT22;6866;50.778;7.206;2023-12-07T02:32:41;4.40;99.90
13591;DHT22;6866;50.778;7.206;2023-12-07T02:35:08;4.40;99.90
13591;DHT22;6866;50.778;7.206;2023-12-07T02:37:43;4.30;99.90
13591;DHT22;6866;50.778;7.206;2023-12-07T02:40:10;4.30;99.90
13591;DHT22;6866;50.778;7.206;2023-12-07T02:42:38;4.40;99.90
13591;DHT22;6866;50.778;7.206;2023-12-07T02:45:04;4.40;99.90
13591;DHT22;6866;50.778;7.206;2023-12-07T02:47:30;4.40;99.90
13591;DHT22;6866;50.778;7.206;2023-12-07T02:49:55;4.30;99.90
13591;DHT22;6866;50.778;7.206;2023-12-07T02:52:21;4.40;99.90
13591;DHT22;6866;50.778;7.206;2023-12-07T02:54:47;4.40;99.90
13591;DHT22;6866;50.778;7.206;2023-12-07T02:57:13;4.40;99.90
13591;DHT22;6866;50.778;7.206;2023-12-07T02:59:40;4.40;99.90
13591;DHT22;6866;50.778;7.206;2023-12-07T03:02:05;4.40;99.90
13591;DHT22;6866;50.778;7.206;2023-12-07T03:04:31;4.40;99.90
13591;DHT22;6866;50.778;7.206;2023-12-07T03:06:57;4.40;99.90
13591;DHT22;6866;50.778;7.206;2023-12-07T03:09:22;4.50;99.90
13591;DHT22;6866;50.778;7.206;2023-12-07T03:11:48;4.40;99.90
13591;DHT22;6866;50.778;7.206;2023-12-07T03:14:13;4.60;99.90
13591;DHT22;6866;50.778;7.206;2023-12-07T03:16:39;4.50;99.90
13591;DHT22;6866;50.778;7.206;2023-12-07T03:19:04;4.40;99.90
13591;DHT22;6866;50.778;7.206;2023-12-07T03:21:30;4.40;99.90
13591;DHT22;6866;50.778;7.206;2023-12-07T03:23:56;4.40;99.90
13591;DHT22;6866;50.778;7.206;2023-12-07T03:26:21;4.50;99.90
13591;DHT22;6866;50.778;7.206;2023-12-07T03:28:47;4.50;99.90
13591;DHT22;6866;50.778;7.206;2023-12-07T03:31:12;4.60;99.90
13591;DHT22;6866;50.778;7.206;2023-12-07T03:33:38;4.70;99.90
13591;DHT22;6866;50.778;7.206;2023-12-07T03:36:04;4.60;99.90
13591;DHT22;6866;50.778;7.206;2023-12-07T03:38:30;4.60;99.90
13591;DHT22;6866;50.778;7.206;2023-12-07T03:40:55;4.50;99.90
13591;DHT22;6866;50.778;7.206;2023-12-07T03:43:21;4.50;99.90
13591;DHT22;6866;50.778;7.206;2023-12-07T03:45:46;4.60;99.90
13591;DHT22;6866;50.778;7.206;2023-12-07T03:48:12;4.60;99.90
13591;DHT22;6866;50.778;7.206;2023-12-07T03:50:38;4.70;99.90
13591;DHT22;6866;50.778;7.206;2023-12-07T03:53:03;4.80;99.90
13591;DHT22;6866;50.778;7.206;2023-12-07T03:55:29;4.70;99.90
13591;DHT22;6866;50.778;7.206;2023-12-07T03:57:54;4.80;99.90
13591;DHT22;6866;50.778;7.206;2023-12-07T04:00:20;4.80;99.90
13591;DHT22;6866;50.778;7.206;2023-12-07T04:02:46;4.80;99.90
13591;DHT22;6866;50.778;7.206;2023-12-07T04:05:12;4.80;99.90
13591;DHT22;6866;50.778;7.206;2023-12-07T04:07:37;4.80;99.90
13591;DHT22;6866;50.778;7.206;2023-12-07T04:10:03;4.60;99.90
13591;DHT22;6866;50.778;7.206;2023-12-07T04:12:31;4.70;99.90
13591;DHT22;6866;50.778;7.206;2023-12-07T04:14:57;4.80;99.90
13591;DHT22;6866;50.778;7.206;2023-12-07T04:17:22;4.80;99.90
13591;DHT22;6866;50.778;7.206;2023-12-07T04:19:48;4.80;99.90
13591;DHT22;6866;50.778;7.206;2023-12-07T04:22:13;4.80;99.90
13591;DHT22;6866;50.778;7.206;2023-12-07T04:24:39;4.80;99.90
13591;DHT22;6866;50.778;7.206;2023-12-07T04:27:04;4.80;99.90
13591;DHT22;6866;50.778;7.206;2023-12-07T04:29:30;4.80;99.90
13591;DHT22;6866;50.778;7.206;2023-12-07T04:31:55;4.80;99.90
13591;DHT22;6866;50.778;7.206;2023-12-07T04:34:21;4.80;99.90
13591;DHT22;6866;50.778;7.206;2023-12-07T04:36:46;4.70;99.90
13591;DHT22;6866;50.778;7.206;2023-12-07T04:39:12;4.70;99.90
13591;DHT22;6866;50.778;7.206;2023-12-07T04:41:37;4.60;99.90
13591;DHT22;6866;50.778;7.206;2023-12-07T04:44:03;4.60;99.90
13591;DHT22;6866;50.778;7.206;2023-12-07T04:46:29;4.60;99.90
13591;DHT22;6866;50.778;7.206;2023-12-07T04:48:54;4.60;99.90
13591;DHT22;6866;50.778;7.206;2023-12-07T04:51:20;4.60;99.90
13591;DHT22;6866;50.778;7.206;2023-12-07T04:53:47;4.60;99.90
13591;DHT22;6866;50.778;7.206;2023-12-07T04:56:12;4.60;99.90
13591;DHT22;6866;50.778;7.206;2023-12-07T04:58:38;4.60;99.90
13591;DHT22;6866;50.778;7.206;2023-12-07T05:01:04;4.40;99.90
13591;DHT22;6866;50.778;7.206;2023-12-07T05:03:30;4.50;99.90
13591;DHT22;6866;50.778;7.206;2023-12-07T05:05:55;4.40;99.90
13591;DHT22;6866;50.778;7.206;2023-12-07T05:08:21;4.40;99.90
13591;DHT22;6866;50.778;7.206;2023-12-07T05:10:46;4.40;99.90
13591;DHT22;6866;50.778;7.206;2023-12-07T05:13:12;4.30;99.90
13591;DHT22;6866;50.778;7.206;2023-12-07T05:15:37;4.30;99.90
13591;DHT22;6866;50.778;7.206;2023-12-07T05:18:03;4.30;99.90
13591;DHT22;6866;50.778;7.206;2023-12-07T05:20:29;4.20;99.90
13591;DHT22;6866;50.778;7.206;2023-12-07T05:22:56;4.30;99.90
13591;DHT22;6866;50.778;7.206;2023-12-07T05:25:21;4.20;99.90
13591;DHT22;6866;50.778;7.206;2023-12-07T05:27:47;4.20;99.90
13591;DHT22;6866;50.778;7.206;2023-12-07T05:30:12;4.20;99.90
13591;DHT22;6866;50.778;7.206;2023-12-07T05:32:38;4.10;99.90
13591;DHT22;6866;50.778;7.206;2023-12-07T05:35:04;4.00;99.90
13591;DHT22;6866;50.778;7.206;2023-12-07T05:37:31;4.00;99.90
13591;DHT22;6866;50.778;7.206;2023-12-07T05:39:57;3.90;99.90
13591;DHT22;6866;50.778;7.206;2023-12-07T05:42:22;4.00;99.90
13591;DHT22;6866;50.778;7.206;2023-12-07T05:44:48;3.90;99.90
13591;DHT22;6866;50.778;7.206;2023-12-07T05:47:13;3.90;99.90
13591;DHT22;6866;50.778;7.206;2023-12-07T05:49:38;3.90;99.90
13591;DHT22;6866;50.778;7.206;2023-12-07T05:52:04;3.90;99.90
13591;DHT22;6866;50.778;7.206;2023-12-07T05:54:30;3.80;99.90
13591;DHT22;6866;50.778;7.206;2023-12-07T05:56:55;3.80;99.90
13591;DHT22;6866;50.778;7.206;2023-12-07T05:59:21;3.80;99.90
13591;DHT22;6866;50.778;7.206;2023-12-07T06:01:47;3.80;99.90
13591;DHT22;6866;50.778;7.206;2023-12-07T06:04:13;3.80;99.90
13591;DHT22;6866;50.778;7.206;2023-12-07T06:06:41;3.80;99.90
13591;DHT22;6866;50.778;7.206;2023-12-07T06:09:06;3.80;99.90
13591;DHT22;6866;50.778;7.206;2023-12-07T06:11:33;3.60;99.90
13591;DHT22;6866;50.778;7.206;2023-12-07T06:14:00;3.60;99.90
13591;DHT22;6866;50.778;7.206;2023-12-07T06:16:25;3.50;99.90
13591;DHT22;6866;50.778;7.206;2023-12-07T06:18:51;3.40;99.90
13591;DHT22;6866;50.778;7.206;2023-12-07T06:21:17;3.50;99.90
13591;DHT22;6866;50.778;7.206;2023-12-07T06:23:43;3.40;99.90
13591;DHT22;6866;50.778;7.206;2023-12-07T06:26:10;3.40;99.90
13591;DHT22;6866;50.778;7.206;2023-12-07T06:28:35;3.30;99.90
13591;DHT22;6866;50.778;7.206;2023-12-07T06:31:07;3.20;99.90
13591;DHT22;6866;50.778;7.206;2023-12-07T06:33:33;3.20;99.90
13591;DHT22;6866;50.778;7.206;2023-12-07T06:36:01;3.10;99.90
13591;DHT22;6866;50.778;7.206;2023-12-07T06:38:28;3.10;99.90
13591;DHT22;6866;50.778;7.206;2023-12-07T06:40:54;3.10;99.90
13591;DHT22;6866;50.778;7.206;2023-12-07T06:43:19;3.10;99.90
13591;DHT22;6866;50.778;7.206;2023-12-07T06:45:45;3.00;99.90
13591;DHT22;6866;50.778;7.206;2023-12-07T06:48:10;2.80;99.90
13591;DHT22;6866;50.778;7.206;2023-12-07T06:50:37;2.90;99.90
13591;DHT22;6866;50.778;7.206;2023-12-07T06:53:02;2.80;99.90
13591;DHT22;6866;50.778;7.206;2023-12-07T06:55:28;2.70;99.90
13591;DHT22;6866;50.778;7.206;2023-12-07T06:57:53;2.50;99.90
13591;DHT22;6866;50.778;7.206;2023-12-07T07:00:19;2.50;99.90
13591;DHT22;6866;50.778;7.206;2023-12-07T07:02:45;2.60;99.90
13591;DHT22;6866;50.778;7.206;2023-12-07T07:05:11;2.30;99.90
13591;DHT22;6866;50.778;7.206;2023-12-07T07:07:37;2.30;99.90
13591;DHT22;6866;50.778;7.206;2023-12-07T07:10:03;2.40;99.90
13591;DHT22;6866;50.778;7.206;2023-12-07T07:12:28;2.50;99.90
13591;DHT22;6866;50.778;7.206;2023-12-07T07:14:54;2.40;99.90
13591;DHT22;6866;50.778;7.206;2023-12-07T07:17:20;2.40;99.90
13591;DHT22;6866;50.778;7.206;2023-12-07T07:19:46;2.40;99.90
13591;DHT22;6866;50.778;7.206;2023-12-07T07:22:11;2.40;99.90
13591;DHT22;6866;50.778;7.206;2023-12-07T07:24:37;2.30;99.90
13591;DHT22;6866;50.778;7.206;2023-12-07T07:27:02;2.30;99.90
13591;DHT22;6866;50.778;7.206;2023-12-07T07:29:28;2.30;99.90
13591;DHT22;6866;50.778;7.206;2023-12-07T07:31:53;2.50;99.90
13591;DHT22;6866;50.778;7.206;2023-12-07T07:34:19;2.40;99.90
13591;DHT22;6866;50.778;7.206;2023-12-07T07:36:45;2.60;99.90
13591;DHT22;6866;50.778;7.206;2023-12-07T07:39:10;2.70;99.90
13591;DHT22;6866;50.778;7.206;2023-12-07T07:41:39;2.60;99.90
13591;DHT22;6866;50.778;7.206;2023-12-07T07:44:05;2.70;99.90
13591;DHT22;6866;50.778;7.206;2023-12-07T07:46:30;2.60;99.90
13591;DHT22;6866;50.778;7.206;2023-12-07T07:48:56;2.60;99.90
13591;DHT22;6866;50.778;7.206;2023-12-07T07:51:21;2.50;99.90
13591;DHT22;6866;50.778;7.206;2023-12-07T07:53:47;2.70;99.90
13591;DHT22;6866;50.778;7.206;2023-12-07T07:56:12;2.90;99.90
13591;DHT22;6866;50.778;7.206;2023-12-07T07:58:38;3.00;99.90
13591;DHT22;6866;50.778;7.206;2023-12-07T08:01:03;4.00;99.90
13591;DHT22;6866;50.778;7.206;2023-12-07T08:03:29;5.20;99.90
13591;DHT22;6866;50.778;7.206;2023-12-07T08:05:55;6.20;99.90
13591;DHT22;6866;50.778;7.206;2023-12-07T08:08:21;7.10;99.90
13591;DHT22;6866;50.778;7.206;2023-12-07T08:10:46;7.70;99.90
13591;DHT22;6866;50.778;7.206;2023-12-07T08:13:12;7.60;99.90
13591;DHT22;6866;50.778;7.206;2023-12-07T08:15:37;8.20;99.90
13591;DHT22;6866;50.778;7.206;2023-12-07T08:18:03;8.00;99.90
13591;DHT22;6866;50.778;7.206;2023-12-07T08:20:28;8.50;96.80
13591;DHT22;6866;50.778;7.206;2023-12-07T08:22:54;8.60;95.50
13591;DHT22;6866;50.778;7.206;2023-12-07T08:25:19;8.70;96.60
13591;DHT22;6866;50.778;7.206;2023-12-07T08:27:46;8.40;98.50
13591;DHT22;6866;50.778;7.206;2023-12-07T08:30:12;9.20;93.30
13591;DHT22;6866;50.778;7.206;2023-12-07T08:32:38;9.50;89.10
13591;DHT22;6866;50.778;7.206;2023-12-07T08:35:05;9.90;86.30
13591;DHT22;6866;50.778;7.206;2023-12-07T08:37:31;10.30;84.50
13591;DHT22;6866;50.778;7.206;2023-12-07T08:39:58;10.30;80.40
13591;DHT22;6866;50.778;7.206;2023-12-07T08:42:23;10.30;77.40
13591;DHT22;6866;50.778;7.206;2023-12-07T08:44:49;10.40;77.50
13591;DHT22;6866;50.778;7.206;2023-12-07T08:47:15;10.70;75.80
13591;DHT22;6866;50.778;7.206;2023-12-07T08:49:40;10.80;72.70
13591;DHT22;6866;50.778;7.206;2023-12-07T08:52:06;10.50;76.00
13591;DHT22;6866;50.778;7.206;2023-12-07T08:54:32;10.90;73.90
13591;DHT22;6866;50.778;7.206;2023-12-07T08:56:57;10.90;73.50
13591;DHT22;6866;50.778;7.206;2023-12-07T08:59:23;10.80;69.50
13591;DHT22;6866;50.778;7.206;2023-12-07T09:01:49;10.50;70.40
13591;DHT22;6866;50.778;7.206;2023-12-07T09:04:14;10.40;71.10
13591;DHT22;6866;50.778;7.206;2023-12-07T09:06:40;10.50;70.60
13591;DHT22;6866;50.778;7.206;2023-12-07T09:09:06;9.70;74.80
13591;DHT22;6866;50.778;7.206;2023-12-07T09:11:31;10.70;71.90
13591;DHT22;6866;50.778;7.206;2023-12-07T09:13:57;10.90;68.90
13591;DHT22;6866;50.778;7.206;2023-12-07T09:16:23;11.00;69.30
13591;DHT22;6866;50.778;7.206;2023-12-07T09:18:50;11.00;66.50
13591;DHT22;6866;50.778;7.206;2023-12-07T09:21:15;10.40;71.50
13591;DHT22;6866;50.778;7.206;2023-12-07T09:23:41;10.60;71.50
13591;DHT22;6866;50.778;7.206;2023-12-07T09:26:06;10.90;68.70
13591;DHT22;6866;50.778;7.206;2023-12-07T09:28:33;10.20;69.90
13591;DHT22;6866;50.778;7.206;2023-12-07T09:30:58;9.90;73.30
13591;DHT22;6866;50.778;7.206;2023-12-07T09:33:24;8.80;75.90
13591;DHT22;6866;50.778;7.206;2023-12-07T09:35:50;7.80;91.50
13591;DHT22;6866;50.778;7.206;2023-12-07T09:38:15;8.30;93.70
13591;DHT22;6866;50.778;7.206;2023-12-07T09:40:42;9.40;86.10
13591;DHT22;6866;50.778;7.206;2023-12-07T09:43:08;9.80;74.10
13591;DHT22;6866;50.778;7.206;2023-12-07T09:45:34;9.80;75.40
13591;DHT22;6866;50.778;7.206;2023-12-07T09:48:00;9.20;79.40
13591;DHT22;6866;50.778;7.206;2023-12-07T09:50:27;9.20;79.90
13591;DHT22;6866;50.778;7.206;2023-12-07T09:52:57;9.30;77.40
13591;DHT22;6866;50.778;7.206;2023-12-07T09:55:23;8.90;84.10
13591;DHT22;6866;50.778;7.206;2023-12-07T09:57:50;8.70;85.20
13591;DHT22;6866;50.778;7.206;2023-12-07T10:00:17;8.40;87.70
13591;DHT22;6866;50.778;7.206;2023-12-07T10:02:45;8.00;90.80
13591;DHT22;6866;50.778;7.206;2023-12-07T10:05:12;7.90;92.10
13591;DHT22;6866;50.778;7.206;2023-12-07T10:07:45;7.70;94.00
13591;DHT22;6866;50.778;7.206;2023-12-07T10:10:15;7.80;94.40
13591;DHT22;6866;50.778;7.206;2023-12-07T10:12:51;7.70;95.90
13591;DHT22;6866;50.778;7.206;2023-12-07T10:15:18;7.10;97.50
13591;DHT22;6866;50.778;7.206;2023-12-07T10:17:55;6.40;99.90
13591;DHT22;6866;50.778;7.206;2023-12-07T10:20:24;6.60;99.90
13591;DHT22;6866;50.778;7.206;2023-12-07T10:23:10;6.90;98.90
13591;DHT22;6866;50.778;7.206;2023-12-07T10:25:41;7.10;99.20
13591;DHT22;6866;50.778;7.206;2023-12-07T10:28:08;7.20;96.10
13591;DHT22;6866;50.778;7.206;2023-12-07T10:30:37;6.90;99.30
13591;DHT22;6866;50.778;7.206;2023-12-07T10:33:03;6.70;99.70
13591;DHT22;6866;50.778;7.206;2023-12-07T10:35:30;7.00;98.30
13591;DHT22;6866;50.778;7.206;2023-12-07T10:37:57;6.90;99.80
13591;DHT22;6866;50.778;7.206;2023-12-07T10:40:23;6.50;99.80
13591;DHT22;6866;50.778;7.206;2023-12-07T10:42:49;6.30;99.90
13591;DHT22;6866;50.778;7.206;2023-12-07T10:45:17;6.20;99.90
13591;DHT22;6866;50.778;7.206;2023-12-07T10:47:44;6.00;99.90
13591;DHT22;6866;50.778;7.206;2023-12-07T10:50:10;6.00;99.90
13591;DHT22;6866;50.778;7.206;2023-12-07T10:52:44;5.80;99.90
13591;DHT22;6866;50.778;7.206;2023-12-07T10:55:15;5.70;99.90
13591;DHT22;6866;50.778;7.206;2023-12-07T10:57:42;5.80;99.90
13591;DHT22;6866;50.778;7.206;2023-12-07T11:00:09;5.40;99.90
13591;DHT22;6866;50.778;7.206;2023-12-07T11:02:36;5.50;99.90
13591;DHT22;6866;50.778;7.206;2023-12-07T11:05:03;5.60;99.90
13591;DHT22;6866;50.778;7.206;2023-12-07T11:10:23;5.30;99.90
13591;DHT22;6866;50.778;7.206;2023-12-07T11:12:59;5.70;99.90
13591;DHT22;6866;50.778;7.206;2023-12-07T11:15:27;5.80;99.90
13591;DHT22;6866;50.778;7.206;2023-12-07T11:17:56;5.80;99.90
13591;DHT22;6866;50.778;7.206;2023-12-07T11:20:25;6.10;99.90
13591;DHT22;6866;50.778;7.206;2023-12-07T11:22:56;5.90;99.90
13591;DHT22;6866;50.778;7.206;2023-12-07T11:25:23;6.00;99.90
13591;DHT22;6866;50.778;7.206;2023-12-07T11:28:00;5.90;99.90
13591;DHT22;6866;50.778;7.206;2023-12-07T11:30:26;6.10;99.90
13591;DHT22;6866;50.778;7.206;2023-12-07T11:32:51;5.70;99.90
13591;DHT22;6866;50.778;7.206;2023-12-07T11:35:17;5.60;99.90
13591;DHT22;6866;50.778;7.206;2023-12-07T11:38:02;5.60;99.90
13591;DHT22;6866;50.778;7.206;2023-12-07T11:40:34;5.50;99.90
13591;DHT22;6866;50.778;7.206;2023-12-07T11:43:00;5.70;99.90
13591;DHT22;6866;50.778;7.206;2023-12-07T11:45:48;5.70;99.90
13591;DHT22;6866;50.778;7.206;2023-12-07T11:48:15;5.80;99.90
13591;DHT22;6866;50.778;7.206;2023-12-07T11:51:03;5.80;99.90
13591;DHT22;6866;50.778;7.206;2023-12-07T11:53:31;5.90;99.90
13591;DHT22;6866;50.778;7.206;2023-12-07T11:56:01;5.60;99.90
13591;DHT22;6866;50.778;7.206;2023-12-07T11:58:28;5.60;99.90
13591;DHT22;6866;50.778;7.206;2023-12-07T12:00:54;5.50;99.90
13591;DHT22;6866;50.778;7.206;2023-12-07T12:03:22;5.40;99.90
13591;DHT22;6866;50.778;7.206;2023-12-07T12:05:48;5.60;99.90
13591;DHT22;6866;50.778;7.206;2023-12-07T12:08:13;5.60;99.90
13591;DHT22;6866;50.778;7.206;2023-12-07T12:10:40;5.70;99.90
13591;DHT22;6866;50.778;7.206;2023-12-07T12:13:05;5.40;99.90
13591;DHT22;6866;50.778;7.206;2023-12-07T12:15:31;5.30;99.90
13591;DHT22;6866;50.778;7.206;2023-12-07T12:17:57;5.30;99.90
13591;DHT22;6866;50.778;7.206;2023-12-07T12:20:27;5.50;99.90
13591;DHT22;6866;50.778;7.206;2023-12-07T12:22:54;5.60;99.90
13591;DHT22;6866;50.778;7.206;2023-12-07T12:25:23;5.80;99.90
13591;DHT22;6866;50.778;7.206;2023-12-07T12:27:52;5.80;99.90
13591;DHT22;6866;50.778;7.206;2023-12-07T12:30:20;5.90;99.90
13591;DHT22;6866;50.778;7.206;2023-12-07T12:32:46;5.80;99.90
13591;DHT22;6866;50.778;7.206;2023-12-07T12:35:13;5.70;99.90
13591;DHT22;6866;50.778;7.206;2023-12-07T12:37:41;5.30;99.90
13591;DHT22;6866;50.778;7.206;2023-12-07T12:40:08;5.40;99.90
13591;DHT22;6866;50.778;7.206;2023-12-07T12:42:34;5.30;99.90
13591;DHT22;6866;50.778;7.206;2023-12-07T12:45:07;5.30;99.90
13591;DHT22;6866;50.778;7.206;2023-12-07T12:47:33;5.40;99.90
13591;DHT22;6866;50.778;7.206;2023-12-07T12:50:00;5.30;99.90
13591;DHT22;6866;50.778;7.206;2023-12-07T12:52:28;5.40;99.90
13591;DHT22;6866;50.778;7.206;2023-12-07T12:54:55;5.50;99.90
13591;DHT22;6866;50.778;7.206;2023-12-07T12:57:21;5.70;99.90
13591;DHT22;6866;50.778;7.206;2023-12-07T12:59:47;5.80;99.90
13591;DHT22;6866;50.778;7.206;2023-12-07T13:02:14;5.80;99.90
13591;DHT22;6866;50.778;7.206;2023-12-07T13:04:39;5.60;99.90
13591;DHT22;6866;50.778;7.206;2023-12-07T13:07:09;5.40;99.90
13591;DHT22;6866;50.778;7.206;2023-12-07T13:09:34;5.50;99.90
13591;DHT22;6866;50.778;7.206;2023-12-07T13:12:00;5.60;99.90
13591;DHT22;6866;50.778;7.206;2023-12-07T13:14:25;5.50;99.90
13591;DHT22;6866;50.778;7.206;2023-12-07T13:16:52;5.50;99.90
13591;DHT22;6866;50.778;7.206;2023-12-07T13:19:18;5.50;99.90
13591;DHT22;6866;50.778;7.206;2023-12-07T13:21:45;5.50;99.90
13591;DHT22;6866;50.778;7.206;2023-12-07T13:24:11;5.30;99.90
13591;DHT22;6866;50.778;7.206;2023-12-07T13:26:41;5.40;99.90
13591;DHT22;6866;50.778;7.206;2023-12-07T13:29:06;5.40;99.90
13591;DHT22;6866;50.778;7.206;2023-12-07T13:31:33;5.30;99.90
13591;DHT22;6866;50.778;7.206;2023-12-07T13:34:00;5.40;99.90
13591;DHT22;6866;50.778;7.206;2023-12-07T13:36:26;5.30;99.90
13591;DHT22;6866;50.778;7.206;2023-12-07T13:38:57;5.30;99.90
13591;DHT22;6866;50.778;7.206;2023-12-07T13:41:23;5.30;99.90
13591;DHT22;6866;50.778;7.206;2023-12-07T13:43:49;5.30;99.90
13591;DHT22;6866;50.778;7.206;2023-12-07T13:46:17;5.30;99.90
13591;DHT22;6866;50.778;7.206;2023-12-07T13:48:42;5.30;99.90
13591;DHT22;6866;50.778;7.206;2023-12-07T13:51:08;5.20;99.90
13591;DHT22;6866;50.778;7.206;2023-12-07T13:53:34;5.30;99.90
13591;DHT22;6866;50.778;7.206;2023-12-07T13:56:00;5.20;99.90
13591;DHT22;6866;50.778;7.206;2023-12-07T13:58:25;5.20;99.90
13591;DHT22;6866;50.778;7.206;2023-12-07T14:00:51;5.10;99.90
13591;DHT22;6866;50.778;7.206;2023-12-07T14:03:17;5.20;99.90
13591;DHT22;6866;50.778;7.206;2023-12-07T14:05:42;5.20;99.90
13591;DHT22;6866;50.778;7.206;2023-12-07T14:08:08;5.10;99.90
13591;DHT22;6866;50.778;7.206;2023-12-07T14:10:34;5.10;99.90
13591;DHT22;6866;50.778;7.206;2023-12-07T14:13:00;5.10;99.90
13591;DHT22;6866;50.778;7.206;2023-12-07T14:15:26;5.00;99.90
13591;DHT22;6866;50.778;7.206;2023-12-07T14:17:51;4.90;99.90
13591;DHT22;6866;50.778;7.206;2023-12-07T14:20:17;4.90;99.90
13591;DHT22;6866;50.778;7.206;2023-12-07T14:22:42;4.90;99.90
13591;DHT22;6866;50.778;7.206;2023-12-07T14:25:09;4.90;99.90
13591;DHT22;6866;50.778;7.206;2023-12-07T14:27:35;4.90;99.90
13591;DHT22;6866;50.778;7.206;2023-12-07T14:30:01;4.80;99.90
13591;DHT22;6866;50.778;7.206;2023-12-07T14:32:26;4.70;99.90
13591;DHT22;6866;50.778;7.206;2023-12-07T14:34:52;4.60;99.90
13591;DHT22;6866;50.778;7.206;2023-12-07T14:37:18;4.60;99.90
13591;DHT22;6866;50.778;7.206;2023-12-07T14:39:43;4.70;99.90
13591;DHT22;6866;50.778;7.206;2023-12-07T14:42:09;4.80;99.90
13591;DHT22;6866;50.778;7.206;2023-12-07T14:44:35;4.80;99.90
13591;DHT22;6866;50.778;7.206;2023-12-07T14:47:00;4.70;99.90
13591;DHT22;6866;50.778;7.206;2023-12-07T14:49:26;4.70;99.90
13591;DHT22;6866;50.778;7.206;2023-12-07T14:51:54;4.50;99.90
13591;DHT22;6866;50.778;7.206;2023-12-07T14:54:24;4.40;99.90
13591;DHT22;6866;50.778;7.206;2023-12-07T14:56:50;4.40;99.90
13591;DHT22;6866;50.778;7.206;2023-12-07T14:59:15;4.40;99.90
13591;DHT22;6866;50.778;7.206;2023-12-07T15:01:42;4.40;99.90
13591;DHT22;6866;50.778;7.206;2023-12-07T15:04:07;4.20;99.90
13591;DHT22;6866;50.778;7.206;2023-12-07T15:06:33;4.00;99.90
13591;DHT22;6866;50.778;7.206;2023-12-07T15:08:59;4.00;99.90
13591;DHT22;6866;50.778;7.206;2023-12-07T15:11:25;4.00;99.90
13591;DHT22;6866;50.778;7.206;2023-12-07T15:13:51;3.90;99.90
13591;DHT22;6866;50.778;7.206;2023-12-07T15:16:17;3.80;99.90
13591;DHT22;6866;50.778;7.206;2023-12-07T15:18:42;3.80;99.90
13591;DHT22;6866;50.778;7.206;2023-12-07T15:21:12;3.70;99.90
13591;DHT22;6866;50.778;7.206;2023-12-07T15:23:39;3.70;99.90
13591;DHT22;6866;50.778;7.206;2023-12-07T15:26:05;3.60;99.90
13591;DHT22;6866;50.778;7.206;2023-12-07T15:28:33;3.50;99.90
13591;DHT22;6866;50.778;7.206;2023-12-07T15:30:59;3.50;99.90
13591;DHT22;6866;50.778;7.206;2023-12-07T15:33:24;3.40;99.90
13591;DHT22;6866;50.778;7.206;2023-12-07T15:35:50;3.40;99.90
13591;DHT22;6866;50.778;7.206;2023-12-07T15:38:15;3.30;99.90
13591;DHT22;6866;50.778;7.206;2023-12-07T15:40:41;3.30;99.90
13591;DHT22;6866;50.778;7.206;2023-12-07T15:43:06;3.30;99.90
13591;DHT22;6866;50.778;7.206;2023-12-07T15:45:32;3.10;99.90
13591;DHT22;6866;50.778;7.206;2023-12-07T15:47:57;3.10;99.90
13591;DHT22;6866;50.778;7.206;2023-12-07T15:50:23;3.10;99.90
13591;DHT22;6866;50.778;7.206;2023-12-07T15:52:49;3.10;99.90
13591;DHT22;6866;50.778;7.206;2023-12-07T15:55:15;3.20;99.90
13591;DHT22;6866;50.778;7.206;2023-12-07T15:57:41;3.20;99.90
13591;DHT22;6866;50.778;7.206;2023-12-07T16:00:07;3.00;99.90
13591;DHT22;6866;50.778;7.206;2023-12-07T16:02:33;3.00;99.90